createdAt,value
2024-02-04T00:01:16.462Z,11.70
2024-02-04T00:03:44.790Z,7.50
2024-02-04T00:06:13.069Z,10.60
2024-02-04T00:08:41.334Z,10.10
2024-02-04T00:11:12.833Z,11.47
2024-02-04T00:13:41.368Z,9.57
2024-02-04T00:16:11.054Z,9.83
2024-02-04T00:18:39.503Z,9.23
2024-02-04T00:21:07.839Z,10.70
2024-02-04T00:23:36.084Z,10.60
2024-02-04T00:26:04.370Z,12.83
2024-02-04T00:28:32.581Z,8.53
2024-02-04T00:31:00.903Z,9.93
2024-02-04T00:33:30.631Z,12.47
2024-02-04T00:35:58.945Z,10.50
2024-02-04T00:38:27.145Z,13.23
2024-02-04T00:40:55.611Z,11.83
2024-02-04T00:43:23.880Z,11.77
2024-02-04T00:45:52.293Z,14.80
2024-02-04T00:48:20.869Z,12.47
2024-02-04T00:50:49.521Z,13.37
2024-02-04T00:53:17.708Z,9.90
2024-02-04T00:55:46.122Z,13.47
2024-02-04T00:58:14.324Z,14.13
2024-02-04T01:00:42.730Z,11.43
2024-02-04T01:03:11.177Z,11.93
2024-02-04T01:05:39.445Z,12.23
2024-02-04T01:08:09.219Z,10.33
2024-02-04T01:10:37.520Z,13.93
2024-02-04T01:13:06.319Z,12.77
2024-02-04T01:15:34.762Z,16.63
2024-02-04T01:18:03.015Z,15.30
2024-02-04T01:20:31.191Z,11.17
2024-02-04T01:22:59.370Z,15.13
2024-02-04T01:25:28.912Z,13.37
2024-02-04T01:27:57.160Z,15.10
2024-02-04T01:30:25.499Z,13.70
2024-02-04T01:32:53.846Z,15.90
2024-02-04T01:35:22.173Z,13.90
2024-02-04T01:37:50.548Z,17.53
2024-02-04T01:40:18.775Z,16.73
2024-02-04T01:42:48.489Z,18.73
2024-02-04T01:45:16.944Z,18.83
2024-02-04T01:47:45.428Z,15.17
2024-02-04T01:50:13.859Z,16.13
2024-02-04T01:52:43.430Z,13.67
2024-02-04T01:55:11.809Z,16.50
2024-02-04T01:57:40.145Z,14.23
2024-02-04T02:00:11.618Z,15.37
2024-02-04T02:02:42.359Z,13.10
2024-02-04T02:05:11.191Z,12.30
2024-02-04T02:07:39.659Z,13.60
2024-02-04T02:10:11.850Z,15.90
2024-02-04T02:12:44.674Z,17.10
2024-02-04T02:15:17.594Z,14.03
2024-02-04T02:17:51.206Z,15.10
2024-02-04T02:20:23.473Z,15.33
2024-02-04T02:22:53.141Z,14.33
2024-02-04T02:25:23.825Z,15.33
2024-02-04T02:27:52.523Z,15.57
2024-02-04T02:30:21.613Z,13.27
2024-02-04T02:32:51.901Z,16.40
2024-02-04T02:35:21.034Z,14.33
2024-02-04T02:37:58.943Z,12.90
2024-02-04T02:40:35.140Z,13.37
2024-02-04T02:43:05.249Z,14.60
2024-02-04T02:45:33.994Z,15.47
2024-02-04T02:48:03.121Z,18.03
2024-02-04T02:50:31.341Z,15.20
2024-02-04T02:52:59.656Z,16.57
2024-02-04T02:55:29.194Z,15.40
2024-02-04T02:57:57.745Z,13.23
2024-02-04T03:00:26.004Z,11.83
2024-02-04T03:02:54.361Z,13.33
2024-02-04T03:05:22.746Z,11.00
2024-02-04T03:07:51.095Z,11.83
2024-02-04T03:10:19.396Z,12.23
2024-02-04T03:12:48.994Z,12.00
2024-02-04T03:15:17.564Z,12.20
2024-02-04T03:17:46.166Z,14.90
2024-02-04T03:20:14.640Z,10.37
2024-02-04T03:22:43.958Z,11.00
2024-02-04T03:25:12.363Z,10.20
2024-02-04T03:27:42.113Z,11.43
2024-02-04T03:30:12.690Z,10.20
2024-02-04T03:32:41.027Z,10.43
2024-02-04T03:35:10.418Z,10.17
2024-02-04T03:37:38.623Z,12.23
2024-02-04T03:40:08.039Z,12.10
2024-02-04T03:42:36.413Z,11.13
2024-02-04T03:45:05.863Z,11.20
2024-02-04T03:47:35.495Z,11.30
2024-02-04T03:50:05.086Z,10.80
2024-02-04T03:52:33.502Z,9.13
2024-02-04T03:55:01.921Z,11.20
2024-02-04T03:57:32.515Z,8.47
2024-02-04T04:00:00.741Z,10.17
2024-02-04T04:02:28.939Z,9.27
2024-02-04T04:04:58.510Z,11.70
2024-02-04T04:07:26.807Z,14.57
2024-02-04T04:09:55.108Z,11.70
2024-02-04T04:12:23.382Z,11.80
2024-02-04T04:14:51.650Z,10.97
2024-02-04T04:17:19.906Z,13.30
2024-02-04T04:19:48.243Z,10.33
2024-02-04T04:22:17.908Z,11.53
2024-02-04T04:24:46.194Z,9.20
2024-02-04T04:27:14.436Z,11.23
2024-02-04T04:29:42.619Z,8.47
2024-02-04T04:32:10.827Z,10.77
2024-02-04T04:34:39.074Z,10.90
2024-02-04T04:37:07.806Z,8.57
2024-02-04T04:39:37.538Z,11.07
2024-02-04T04:42:06.269Z,7.77
2024-02-04T04:44:33.439Z,10.10
2024-02-04T04:47:01.603Z,10.70
2024-02-04T04:49:29.977Z,9.03
2024-02-04T04:51:58.278Z,11.40
2024-02-04T04:54:26.526Z,12.00
2024-02-04T04:56:56.034Z,12.90
2024-02-04T04:59:24.170Z,7.73
2024-02-04T05:01:52.644Z,8.30
2024-02-04T05:04:21.047Z,11.67
2024-02-04T05:06:49.366Z,16.00
2024-02-04T05:09:17.569Z,8.10
2024-02-04T05:11:45.832Z,11.70
2024-02-04T05:14:15.428Z,11.07
2024-02-04T05:16:45.330Z,10.80
2024-02-04T05:19:14.449Z,7.77
2024-02-04T05:21:42.865Z,7.50
2024-02-04T05:24:11.141Z,11.77
2024-02-04T05:26:39.282Z,8.07
2024-02-04T05:29:07.464Z,7.50
2024-02-04T05:31:43.264Z,7.40
2024-02-04T05:34:11.701Z,8.00
2024-02-04T05:36:40.034Z,9.00
2024-02-04T05:39:12.616Z,9.03
2024-02-04T05:41:40.916Z,12.40
2024-02-04T05:44:10.265Z,9.10
2024-02-04T05:46:40.978Z,8.53
2024-02-04T05:49:09.537Z,8.97
2024-02-04T05:51:41.622Z,8.70
2024-02-04T05:54:10.635Z,9.37
2024-02-04T05:56:39.118Z,7.23
2024-02-04T05:59:07.443Z,10.73
2024-02-04T06:01:35.725Z,11.93
2024-02-04T06:04:05.856Z,8.13
2024-02-04T06:06:34.253Z,7.70
2024-02-04T06:09:02.831Z,8.93
2024-02-04T06:11:30.991Z,6.67
2024-02-04T06:13:59.194Z,6.73
2024-02-04T06:16:28.130Z,12.07
2024-02-04T06:18:59.267Z,11.10
2024-02-04T06:21:29.100Z,7.53
2024-02-04T06:23:57.294Z,12.20
2024-02-04T06:26:25.955Z,9.37
2024-02-04T06:28:54.300Z,11.27
2024-02-04T06:31:22.706Z,8.30
2024-02-04T06:33:51.030Z,10.13
2024-02-04T06:36:19.304Z,9.90
2024-02-04T06:38:48.861Z,8.60
2024-02-04T06:41:17.065Z,9.70
2024-02-04T06:43:45.257Z,10.83
2024-02-04T06:46:13.499Z,11.80
2024-02-04T06:48:41.733Z,9.73
2024-02-04T06:51:10.010Z,12.67
2024-02-04T06:53:38.272Z,7.33
2024-02-04T06:56:08.286Z,17.40
2024-02-04T06:58:39.225Z,10.97
2024-02-04T07:01:07.578Z,12.83
2024-02-04T07:03:35.895Z,12.50
2024-02-04T07:06:04.467Z,10.70
2024-02-04T07:08:32.765Z,10.20
2024-02-04T07:11:00.997Z,9.63
2024-02-04T07:13:30.628Z,11.07
2024-02-04T07:15:59.047Z,11.70
2024-02-04T07:18:27.434Z,13.83
2024-02-04T07:20:55.647Z,10.60
2024-02-04T07:23:23.831Z,13.10
2024-02-04T07:25:52.025Z,14.33
2024-02-04T07:28:20.234Z,8.50
2024-02-04T07:30:49.807Z,13.27
2024-02-04T07:33:18.068Z,11.27
2024-02-04T07:35:46.318Z,9.27
2024-02-04T07:38:14.635Z,7.90
2024-02-04T07:40:42.985Z,11.30
2024-02-04T07:43:11.254Z,11.80
2024-02-04T07:45:39.942Z,13.90
2024-02-04T07:48:10.566Z,9.67
2024-02-04T07:50:38.838Z,10.83
2024-02-04T07:53:07.024Z,9.50
2024-02-04T07:55:35.191Z,10.73
2024-02-04T07:58:03.420Z,12.17
2024-02-04T08:00:31.727Z,12.23
2024-02-04T08:02:59.927Z,8.63
2024-02-04T08:05:29.914Z,14.43
2024-02-04T08:07:58.232Z,13.50
2024-02-04T08:10:26.664Z,12.37
2024-02-04T08:12:55.242Z,11.33
2024-02-04T08:15:23.550Z,9.43
2024-02-04T08:17:51.955Z,8.97
2024-02-04T08:20:22.247Z,8.50
2024-02-04T08:22:51.795Z,11.53
2024-02-04T08:25:20.023Z,12.70
2024-02-04T08:27:48.446Z,13.37
2024-02-04T08:30:18.000Z,6.40
2024-02-04T08:32:46.804Z,9.60
2024-02-04T08:35:15.214Z,9.33
2024-02-04T08:37:43.512Z,8.53
2024-02-04T08:40:13.573Z,9.10
2024-02-04T08:42:41.912Z,11.03
2024-02-04T08:45:10.981Z,10.17
2024-02-04T08:47:39.256Z,8.17
2024-02-04T08:50:08.747Z,9.20
2024-02-04T08:52:37.002Z,11.30
2024-02-04T08:55:07.323Z,10.70
2024-02-04T08:57:37.044Z,14.33
2024-02-04T09:00:06.124Z,9.70
2024-02-04T09:02:35.509Z,11.20
2024-02-04T09:05:03.770Z,9.13
2024-02-04T09:07:34.490Z,10.40
2024-02-04T09:10:03.182Z,13.77
2024-02-04T09:12:31.750Z,7.97
2024-02-04T09:15:01.666Z,8.30
2024-02-04T09:17:29.962Z,9.67
2024-02-04T09:19:58.374Z,11.20
2024-02-04T09:22:26.803Z,9.47
2024-02-04T09:24:55.138Z,16.77
2024-02-04T09:27:23.354Z,10.10
2024-02-04T09:29:51.641Z,15.10
2024-02-04T09:32:21.368Z,12.07
2024-02-04T09:34:49.892Z,9.63
2024-02-04T09:37:18.611Z,8.73
2024-02-04T09:39:46.991Z,8.17
2024-02-04T09:42:24.524Z,9.53
2024-02-04T09:44:52.980Z,14.80
2024-02-04T09:47:22.898Z,15.53
2024-02-04T09:49:51.304Z,12.97
2024-02-04T09:52:22.707Z,8.00
2024-02-04T09:54:54.924Z,8.40
2024-02-04T09:57:23.815Z,9.37
2024-02-04T09:59:51.981Z,9.17
2024-02-04T10:02:22.127Z,7.60
2024-02-04T10:04:52.180Z,10.07
2024-02-04T10:07:21.004Z,10.53
2024-02-04T10:09:49.566Z,9.80
2024-02-04T10:12:18.808Z,11.17
2024-02-04T10:14:46.978Z,11.23
2024-02-04T10:17:17.678Z,10.20
2024-02-04T10:19:46.055Z,7.70
2024-02-04T10:22:18.010Z,18.40
2024-02-04T10:24:48.001Z,8.83
2024-02-04T10:27:26.234Z,9.83
2024-02-04T10:29:58.747Z,10.00
2024-02-04T10:32:27.118Z,11.80
2024-02-04T10:34:55.455Z,10.83
2024-02-04T10:37:26.698Z,10.73
2024-02-04T10:39:56.641Z,7.10
2024-02-04T10:42:27.782Z,10.03
2024-02-04T10:44:57.064Z,10.60
2024-02-04T10:47:26.570Z,8.60
2024-02-04T10:49:55.861Z,11.83
2024-02-04T10:52:29.922Z,11.47
2024-02-04T10:54:58.457Z,7.90
2024-02-04T10:57:27.642Z,9.67
2024-02-04T10:59:56.185Z,9.97
2024-02-04T11:02:25.648Z,11.07
2024-02-04T11:04:56.802Z,5.67
2024-02-04T11:07:27.484Z,8.30
2024-02-04T11:09:56.087Z,7.17
2024-02-04T11:12:25.723Z,9.23
2024-02-04T11:14:59.686Z,11.70
2024-02-04T11:17:45.591Z,7.27
2024-02-04T11:20:27.545Z,9.40
2024-02-04T11:23:16.953Z,12.87
2024-02-04T11:25:48.749Z,12.30
2024-02-04T11:28:18.457Z,11.00
2024-02-04T11:30:47.445Z,9.07
2024-02-04T11:33:20.819Z,9.50
2024-02-04T11:35:49.433Z,8.83
2024-02-04T11:38:21.757Z,8.43
2024-02-04T11:40:50.313Z,10.10
2024-02-04T11:43:18.750Z,10.10
2024-02-04T11:45:48.125Z,6.70
2024-02-04T11:48:18.025Z,10.87
2024-02-04T11:50:54.244Z,10.17
2024-02-04T11:53:24.034Z,9.37
2024-02-04T11:55:55.027Z,7.20
2024-02-04T11:58:24.744Z,9.63
2024-02-04T12:00:58.772Z,6.80
2024-02-04T12:03:33.801Z,6.77
2024-02-04T12:06:02.837Z,10.40
2024-02-04T12:08:34.258Z,10.30
2024-02-04T12:11:03.839Z,6.17
2024-02-04T12:13:33.461Z,7.67
2024-02-04T12:16:01.826Z,5.90
2024-02-04T12:18:30.298Z,9.70
2024-02-04T12:20:58.703Z,7.30
2024-02-04T12:23:27.778Z,7.93
2024-02-04T12:25:57.992Z,6.87
2024-02-04T12:28:26.254Z,7.63
2024-02-04T12:30:57.519Z,8.57
2024-02-04T12:33:25.907Z,6.30
2024-02-04T12:35:57.377Z,11.70
2024-02-04T12:38:25.861Z,10.63
2024-02-04T12:40:54.199Z,8.30
2024-02-04T12:43:23.830Z,6.73
2024-02-04T12:45:52.070Z,7.97
2024-02-04T12:48:24.313Z,12.73
2024-02-04T12:50:52.665Z,10.40
2024-02-04T12:53:21.961Z,8.20
2024-02-04T12:55:51.056Z,10.07
2024-02-04T12:58:19.583Z,6.87
2024-02-04T13:00:49.368Z,5.53
2024-02-04T13:03:18.919Z,6.13
2024-02-04T13:05:48.062Z,6.30
2024-02-04T13:08:20.765Z,10.80
2024-02-04T13:10:56.904Z,5.50
2024-02-04T13:13:28.252Z,6.93
2024-02-04T13:16:00.467Z,7.20
2024-02-04T13:18:28.789Z,8.40
2024-02-04T13:20:57.034Z,9.50
2024-02-04T13:23:25.406Z,5.97
2024-02-04T13:25:53.696Z,8.37
2024-02-04T13:28:25.374Z,8.17
2024-02-04T13:30:53.738Z,6.57
2024-02-04T13:33:23.594Z,5.83
2024-02-04T13:35:52.093Z,6.47
2024-02-04T13:38:20.395Z,5.43
2024-02-04T13:40:48.973Z,8.13
2024-02-04T13:43:17.197Z,8.37
2024-02-04T13:45:45.656Z,5.20
2024-02-04T13:48:14.172Z,6.93
2024-02-04T13:50:46.096Z,6.43
2024-02-04T13:53:14.844Z,6.53
2024-02-04T13:55:43.426Z,9.03
2024-02-04T13:58:11.778Z,4.97
2024-02-04T14:00:40.238Z,5.53
2024-02-04T14:03:08.768Z,6.90
2024-02-04T14:05:37.068Z,6.00
2024-02-04T14:08:07.823Z,10.03
2024-02-04T14:10:36.235Z,7.97
2024-02-04T14:13:05.707Z,4.87
2024-02-04T14:15:35.925Z,6.53
2024-02-04T14:18:04.202Z,9.33
2024-02-04T14:20:33.005Z,7.03
2024-02-04T14:23:01.231Z,5.63
2024-02-04T14:25:31.313Z,9.40
2024-02-04T14:27:59.677Z,6.17
2024-02-04T14:30:27.994Z,7.30
2024-02-04T14:32:56.264Z,5.20
2024-02-04T14:35:24.512Z,10.60
2024-02-04T14:37:53.366Z,10.70
2024-02-04T14:40:21.702Z,7.50
2024-02-04T14:42:52.277Z,6.40
2024-02-04T14:45:20.942Z,5.90
2024-02-04T14:47:50.169Z,6.43
2024-02-04T14:50:19.738Z,6.70
2024-02-04T14:52:48.347Z,6.37
2024-02-04T14:55:19.934Z,7.13
2024-02-04T14:57:50.635Z,6.30
2024-02-04T15:00:19.639Z,6.47
2024-02-04T15:02:47.884Z,7.27
2024-02-04T15:05:16.985Z,5.87
2024-02-04T15:07:48.834Z,6.10
2024-02-04T15:10:16.587Z,8.00
2024-02-04T15:12:45.664Z,7.33
2024-02-04T15:15:16.504Z,5.60
2024-02-04T15:17:45.160Z,7.10
2024-02-04T15:20:19.153Z,3.50
2024-02-04T15:22:48.464Z,7.20
2024-02-04T15:25:18.756Z,4.90
2024-02-04T15:27:47.693Z,6.33
2024-02-04T15:30:19.105Z,5.93
2024-02-04T15:32:48.720Z,5.20
2024-02-04T15:35:18.444Z,5.93
2024-02-04T15:37:47.819Z,5.77
2024-02-04T15:40:16.369Z,7.77
2024-02-04T15:42:44.660Z,4.63
2024-02-04T15:45:14.985Z,7.03
2024-02-04T15:47:51.861Z,6.20
2024-02-04T15:50:21.154Z,7.30
2024-02-04T15:52:49.847Z,6.17
2024-02-04T15:55:19.382Z,6.50
2024-02-04T15:57:52.149Z,6.97
2024-02-04T16:00:23.850Z,8.83
2024-02-04T16:02:55.183Z,7.40
2024-02-04T16:05:25.052Z,10.53
2024-02-04T16:07:55.374Z,6.10
2024-02-04T16:10:24.837Z,6.40
2024-02-04T16:12:57.761Z,5.30
2024-02-04T16:15:27.481Z,5.17
2024-02-04T16:18:00.190Z,6.70
2024-02-04T16:20:30.099Z,7.73
2024-02-04T16:22:58.357Z,4.97
2024-02-04T16:25:30.994Z,5.47
2024-02-04T16:28:00.074Z,4.87
2024-02-04T16:30:28.418Z,8.80
2024-02-04T16:32:57.973Z,11.60
2024-02-04T16:35:26.334Z,7.20
2024-02-04T16:37:54.610Z,11.20
2024-02-04T16:40:22.789Z,6.23
2024-02-04T16:42:52.278Z,6.13
2024-02-04T16:45:20.449Z,6.13
2024-02-04T16:47:48.838Z,6.60
2024-02-04T16:50:19.197Z,5.60
2024-02-04T16:52:47.914Z,6.23
2024-02-04T16:55:16.507Z,7.03
2024-02-04T16:57:45.821Z,5.13
2024-02-04T17:00:16.399Z,6.63
2024-02-04T17:02:44.874Z,7.40
2024-02-04T17:05:14.337Z,6.67
2024-02-04T17:07:44.666Z,5.63
2024-02-04T17:10:14.499Z,7.67
2024-02-04T17:12:44.473Z,4.87
2024-02-04T17:15:14.318Z,5.43
2024-02-04T17:17:44.903Z,6.70
2024-02-04T17:20:22.719Z,7.07
2024-02-04T17:22:55.562Z,5.40
2024-02-04T17:25:30.930Z,6.73
2024-02-04T17:28:02.777Z,4.33
2024-02-04T17:30:33.081Z,5.97
2024-02-04T17:33:02.198Z,6.27
2024-02-04T17:35:30.428Z,4.87
2024-02-04T17:38:05.004Z,5.70
2024-02-04T17:40:33.877Z,6.73
2024-02-04T17:43:02.191Z,6.13
2024-02-04T17:45:30.370Z,5.30
2024-02-04T17:47:58.657Z,7.53
2024-02-04T17:50:28.628Z,5.47
2024-02-04T17:52:56.761Z,6.10
2024-02-04T17:55:27.245Z,7.37
2024-02-04T17:57:57.452Z,6.70
2024-02-04T18:00:25.782Z,7.30
2024-02-04T18:02:54.001Z,6.53
2024-02-04T18:05:22.429Z,6.83
2024-02-04T18:07:52.242Z,7.43
2024-02-04T18:10:20.618Z,7.70
2024-02-04T18:12:50.213Z,6.67
2024-02-04T18:15:18.633Z,12.33
2024-02-04T18:17:49.407Z,6.80
2024-02-04T18:20:17.982Z,7.07
2024-02-04T18:22:46.121Z,8.43
2024-02-04T18:25:14.585Z,8.73
2024-02-04T18:27:43.709Z,8.67
2024-02-04T18:30:17.723Z,8.53
2024-02-04T18:32:46.329Z,8.20
2024-02-04T18:35:14.831Z,7.90
2024-02-04T18:37:43.049Z,7.87
2024-02-04T18:40:11.935Z,7.63
2024-02-04T18:42:40.640Z,7.43
2024-02-04T18:45:09.679Z,7.43
2024-02-04T18:47:39.404Z,7.80
2024-02-04T18:50:09.263Z,7.97
2024-02-04T18:52:38.318Z,8.23
2024-02-04T18:55:07.029Z,8.17
2024-02-04T18:57:37.195Z,7.80
2024-02-04T19:00:06.964Z,8.53
2024-02-04T19:02:35.168Z,8.67
2024-02-04T19:05:06.181Z,12.00
2024-02-04T19:07:34.728Z,12.60
2024-02-04T19:10:04.745Z,12.97
2024-02-04T19:12:33.196Z,13.97
2024-02-04T19:15:04.188Z,15.40
2024-02-04T19:17:32.437Z,15.17
2024-02-04T19:20:00.974Z,16.40
2024-02-04T19:22:31.479Z,16.80
2024-02-04T19:25:00.389Z,16.00
2024-02-04T19:27:29.059Z,17.50
2024-02-04T19:29:57.245Z,15.73
2024-02-04T19:32:25.444Z,12.43
2024-02-04T19:34:53.750Z,10.97
2024-02-04T19:37:22.054Z,10.60
2024-02-04T19:39:52.029Z,10.13
2024-02-04T19:42:23.880Z,9.93
2024-02-04T19:44:52.476Z,10.43
2024-02-04T19:47:20.723Z,10.63
2024-02-04T19:49:49.068Z,10.80
2024-02-04T19:52:17.399Z,11.27
2024-02-04T19:54:45.737Z,11.77
2024-02-04T19:57:15.867Z,11.40
2024-02-04T19:59:46.945Z,11.00
2024-02-04T20:02:15.717Z,12.37
2024-02-04T20:04:44.030Z,12.63
2024-02-04T20:07:12.345Z,12.53
2024-02-04T20:09:40.656Z,12.97
2024-02-04T20:12:10.000Z,13.13
2024-02-04T20:14:41.024Z,14.57
2024-02-04T20:17:09.231Z,13.47
2024-02-04T20:19:37.682Z,12.77
2024-02-04T20:22:07.394Z,13.40
2024-02-04T20:24:35.887Z,14.10
2024-02-04T20:27:04.308Z,13.10
2024-02-04T20:29:32.507Z,13.47
2024-02-04T20:32:02.151Z,12.63
2024-02-04T20:34:30.531Z,12.90
2024-02-04T20:36:58.878Z,11.33
2024-02-04T20:39:27.213Z,14.00
2024-02-04T20:41:57.467Z,12.43
2024-02-04T20:44:25.910Z,11.37
2024-02-04T20:46:54.195Z,12.43
2024-02-04T20:49:23.863Z,12.23
2024-02-04T20:51:53.964Z,13.97
2024-02-04T20:54:22.569Z,13.27
2024-02-04T20:56:50.785Z,13.00
2024-02-04T20:59:20.656Z,13.00
2024-02-04T21:01:49.122Z,15.63
2024-02-04T21:04:17.785Z,15.10
2024-02-04T21:06:47.505Z,15.13
2024-02-04T21:09:15.787Z,16.07
2024-02-04T21:11:44.046Z,19.43
2024-02-04T21:14:12.481Z,14.67
2024-02-04T21:16:40.690Z,15.53
2024-02-04T21:19:08.974Z,15.93
2024-02-04T21:21:37.276Z,15.83
2024-02-04T21:24:07.560Z,16.83
2024-02-04T21:26:35.766Z,16.30
2024-02-04T21:29:04.586Z,14.57
2024-02-04T21:31:33.661Z,17.27
2024-02-04T21:34:02.329Z,15.07
2024-02-04T21:36:30.610Z,14.57
2024-02-04T21:38:58.777Z,16.20
2024-02-04T21:41:28.354Z,14.80
2024-02-04T21:43:56.602Z,13.83
2024-02-04T21:46:24.820Z,14.27
2024-02-04T21:48:56.785Z,13.40
2024-02-04T21:51:25.238Z,14.60
2024-02-04T21:53:53.497Z,14.93
2024-02-04T21:56:21.698Z,14.63
2024-02-04T21:58:51.350Z,14.60
2024-02-04T22:01:19.887Z,14.77
2024-02-04T22:03:49.385Z,15.17
2024-02-04T22:06:18.614Z,12.57
2024-02-04T22:08:48.652Z,14.23
2024-02-04T22:11:17.323Z,12.90
2024-02-04T22:13:46.182Z,15.47
2024-02-04T22:16:15.889Z,9.93
2024-02-04T22:18:44.298Z,11.97
2024-02-04T22:21:20.663Z,16.50
2024-02-04T22:23:49.220Z,13.73
2024-02-04T22:26:17.564Z,11.63
2024-02-04T22:28:45.747Z,10.60
2024-02-04T22:31:15.486Z,11.57
2024-02-04T22:33:43.921Z,10.20
2024-02-04T22:36:12.481Z,12.83
2024-02-04T22:38:42.491Z,12.77
2024-02-04T22:41:11.693Z,12.17
2024-02-04T22:43:40.594Z,10.53
2024-02-04T22:46:08.904Z,12.50
2024-02-04T22:48:38.711Z,14.37
2024-02-04T22:51:07.133Z,13.27
2024-02-04T22:53:35.402Z,11.53
2024-02-04T22:56:06.557Z,11.43
2024-02-04T22:58:36.416Z,11.70
2024-02-04T23:01:05.889Z,9.90
2024-02-04T23:03:34.468Z,13.57
2024-02-04T23:06:04.215Z,9.97
2024-02-04T23:08:33.024Z,13.40
2024-02-04T23:11:01.309Z,13.53
2024-02-04T23:13:29.639Z,14.00
2024-02-04T23:15:58.257Z,12.10
2024-02-04T23:18:26.949Z,11.97
2024-02-04T23:20:55.669Z,10.07
2024-02-04T23:23:27.766Z,14.33
2024-02-04T23:25:56.018Z,9.00
2024-02-04T23:28:24.752Z,10.63
2024-02-04T23:30:53.032Z,10.57
2024-02-04T23:33:21.403Z,10.30
2024-02-04T23:35:49.637Z,14.50
2024-02-04T23:38:17.858Z,13.37
2024-02-04T23:40:47.502Z,10.63
2024-02-04T23:43:15.845Z,13.37
2024-02-04T23:45:44.203Z,12.47
2024-02-04T23:48:12.569Z,9.27
2024-02-04T23:50:40.805Z,8.77
2024-02-04T23:53:09.834Z,17.60
2024-02-04T23:55:38.271Z,13.03
2024-02-04T23:58:07.982Z,10.90
